createdAt,value
2023-02-01T00:00:55.330Z,101058.81
2023-02-01T00:05:58.843Z,101068.59
2023-02-01T00:11:02.821Z,101054.53
2023-02-01T00:16:22.542Z,101058.81
2023-02-01T00:21:21.549Z,101051.25
2023-02-01T00:26:44.972Z,101042.28
2023-02-01T00:31:41.643Z,101035.00
2023-02-01T00:36:38.167Z,101027.41
2023-02-01T00:41:34.707Z,101040.44
2023-02-01T00:46:31.555Z,101046.94
2023-02-01T00:51:29.716Z,101037.78
2023-02-01T00:56:28.334Z,101029.41
2023-02-01T01:01:27.021Z,101036.19
2023-02-01T01:06:30.961Z,101042.41
2023-02-01T01:11:30.949Z,101034.53
2023-02-01T01:16:29.740Z,101034.03
2023-02-01T01:21:27.018Z,101029.69
2023-02-01T01:26:26.576Z,101023.19
2023-02-01T01:31:23.096Z,101007.50
2023-02-01T01:36:19.917Z,101011.53
2023-02-01T01:41:22.334Z,100991.25
2023-02-01T01:46:22.126Z,101001.00
2023-02-01T01:51:23.111Z,100984.75
2023-02-01T01:56:19.571Z,100979.88
2023-02-01T02:01:16.239Z,100982.06
2023-02-01T02:06:21.168Z,100975.03
2023-02-01T02:11:18.173Z,100969.06
2023-02-01T02:16:35.962Z,100963.38
2023-02-01T02:21:54.186Z,100965.81
2023-02-01T02:26:58.490Z,100937.13
2023-02-01T02:32:13.617Z,100932.78
2023-02-01T02:37:29.561Z,100938.72
2023-02-01T02:43:13.805Z,100940.09
2023-02-01T02:48:25.390Z,100933.84
2023-02-01T02:53:59.273Z,100924.63
2023-02-01T02:59:14.684Z,100908.94
2023-02-01T03:04:18.197Z,100897.59
2023-02-01T03:09:21.436Z,100893.53
2023-02-01T03:14:21.961Z,100908.94
2023-02-01T03:19:27.462Z,100897.56
2023-02-01T03:24:34.156Z,100889.44
2023-02-01T03:29:38.509Z,100902.41
2023-02-01T03:34:34.893Z,100907.28
2023-02-01T03:39:54.293Z,100895.34
2023-02-01T03:44:56.139Z,100888.84
2023-02-01T03:50:00.466Z,100889.94
2023-02-01T03:54:57.899Z,100885.03
2023-02-01T03:59:54.322Z,100879.63
2023-02-01T04:04:50.765Z,100859.09
2023-02-01T04:09:47.325Z,100869.34
2023-02-01T04:14:43.752Z,100856.38
2023-02-01T04:19:40.192Z,100859.09
2023-02-01T04:24:37.366Z,100856.94
2023-02-01T04:29:34.423Z,100854.50
2023-02-01T04:34:31.097Z,100829.06
2023-02-01T04:39:27.542Z,100830.97
2023-02-01T04:44:24.111Z,100840.72
2023-02-01T04:49:22.170Z,100845.03
2023-02-01T04:54:18.698Z,100815.53
2023-02-01T04:59:15.231Z,100829.31
2023-02-01T05:04:12.630Z,100830.66
2023-02-01T05:09:09.083Z,100838.19
2023-02-01T05:14:05.542Z,100849.78
2023-02-01T05:19:01.956Z,100861.50
2023-02-01T05:24:36.542Z,100851.09
2023-02-01T05:29:32.998Z,100835.84
2023-02-01T05:34:29.491Z,100793.69
2023-02-01T05:39:26.050Z,100815.84
2023-02-01T05:44:22.459Z,100836.78
2023-02-01T05:49:19.083Z,100837.66
2023-02-01T05:54:16.541Z,100846.53
2023-02-01T05:59:12.967Z,100870.72
2023-02-01T06:04:09.388Z,100846.41
2023-02-01T06:09:06.018Z,100836.69
2023-02-01T06:14:02.860Z,100840.44
2023-02-01T06:18:59.319Z,100829.72
2023-02-01T06:23:56.411Z,100828.69
2023-02-01T06:28:53.322Z,100820.38
2023-02-01T06:33:50.640Z,100816.91
2023-02-01T06:38:47.075Z,100812.94
2023-02-01T06:43:44.487Z,100830.00
2023-02-01T06:48:41.025Z,100826.00
2023-02-01T06:53:37.428Z,100816.06
2023-02-01T06:58:34.881Z,100816.09
2023-02-01T07:03:31.287Z,100822.34
2023-02-01T07:08:28.830Z,100826.72
2023-02-01T07:13:25.255Z,100836.75
2023-02-01T07:18:21.736Z,100848.13
2023-02-01T07:23:18.209Z,100828.69
2023-02-01T07:28:14.907Z,100828.41
2023-02-01T07:33:11.346Z,100813.09
2023-02-01T07:38:07.732Z,100815.28
2023-02-01T07:43:06.944Z,100818.47
2023-02-01T07:48:04.183Z,100836.84
2023-02-01T07:53:01.701Z,100819.59
2023-02-01T07:57:59.488Z,100840.13
2023-02-01T08:02:58.831Z,100843.44
2023-02-01T08:07:55.305Z,100841.28
2023-02-01T08:12:52.768Z,100839.13
2023-02-01T08:17:50.573Z,100853.72
2023-02-01T08:22:46.989Z,100858.63
2023-02-01T08:27:43.507Z,100884.31
2023-02-01T08:32:40.059Z,100859.69
2023-02-01T08:37:37.221Z,100865.66
2023-02-01T08:42:52.053Z,100854.81
2023-02-01T08:47:48.716Z,100857.00
2023-02-01T08:52:45.182Z,100821.84
2023-02-01T08:57:42.599Z,100814.25
2023-02-01T09:02:39.073Z,100820.75
2023-02-01T09:07:35.589Z,100838.63
2023-02-01T09:12:35.109Z,100811.00
2023-02-01T09:17:31.555Z,100819.91
2023-02-01T09:22:28.013Z,100821.81
2023-02-01T09:27:24.545Z,100809.81
2023-02-01T09:32:22.226Z,100820.06
2023-02-01T09:37:19.253Z,100817.34
2023-02-01T09:42:53.088Z,100830.88
2023-02-01T09:47:58.786Z,100825.19
2023-02-01T09:53:01.492Z,100812.44
2023-02-01T09:58:06.565Z,100817.84
2023-02-01T10:03:03.114Z,100813.16
2023-02-01T10:08:27.215Z,100808.38
2023-02-01T10:13:58.710Z,100814.38
2023-02-01T10:19:17.529Z,100809.25
2023-02-01T10:24:25.238Z,100807.31
2023-02-01T10:29:25.740Z,100803.06
2023-02-01T10:34:27.347Z,100802.06
2023-02-01T10:39:24.351Z,100807.88
2023-02-01T10:44:25.183Z,100815.78
2023-02-01T10:49:39.381Z,100798.56
2023-02-01T10:54:41.713Z,100800.97
2023-02-01T10:59:39.273Z,100787.69
2023-02-01T11:04:36.639Z,100792.28
2023-02-01T11:09:33.498Z,100729.78
2023-02-01T11:14:40.402Z,100772.81
2023-02-01T11:19:36.917Z,100745.75
2023-02-01T11:24:42.140Z,100759.53
2023-02-01T11:29:42.447Z,100757.03
2023-02-01T11:34:44.380Z,100735.88
2023-02-01T11:39:40.882Z,100731.28
2023-02-01T11:44:39.753Z,100735.31
2023-02-01T11:49:36.241Z,100694.41
2023-02-01T11:55:06.195Z,100702.50
2023-02-01T12:00:15.353Z,100701.72
2023-02-01T12:05:33.395Z,100682.56
2023-02-01T12:10:44.469Z,100674.22
2023-02-01T12:15:49.760Z,100677.25
2023-02-01T12:21:16.049Z,100675.69
2023-02-01T12:26:28.958Z,100686.81
2023-02-01T12:31:34.388Z,100696.28
2023-02-01T12:36:41.300Z,100704.38
2023-02-01T12:41:44.353Z,100717.66
2023-02-01T12:47:01.932Z,100723.66
2023-02-01T12:52:04.347Z,100714.47
2023-02-01T12:57:11.963Z,100713.13
2023-02-01T13:02:34.272Z,100703.94
2023-02-01T13:07:43.835Z,100696.38
2023-02-01T13:13:10.780Z,100697.16
2023-02-01T13:18:14.831Z,100688.25
2023-02-01T13:23:31.191Z,100681.72
2023-02-01T13:28:33.221Z,100679.28
2023-02-01T13:33:56.463Z,100666.78
2023-02-01T13:39:24.175Z,100664.19
2023-02-01T13:44:33.747Z,100666.41
2023-02-01T13:49:37.512Z,100663.59
2023-02-01T13:54:38.141Z,100634.19
2023-02-01T13:59:40.469Z,100650.78
2023-02-01T14:04:50.660Z,100650.81
2023-02-01T14:09:47.109Z,100690.94
2023-02-01T14:14:43.556Z,100716.06
2023-02-01T14:19:39.990Z,100706.09
2023-02-01T14:24:37.704Z,100668.25
2023-02-01T14:29:37.570Z,100710.94
2023-02-01T14:34:49.531Z,100742.28
2023-02-01T14:39:45.899Z,100775.19
2023-02-01T14:44:59.201Z,100766.03
2023-02-01T14:49:56.267Z,100765.53
2023-02-01T14:54:57.268Z,100780.66
2023-02-01T15:00:01.218Z,100769.34
2023-02-01T15:04:57.968Z,100769.34
2023-02-01T15:09:57.904Z,100763.38
2023-02-01T15:15:09.688Z,100764.47
2023-02-01T15:20:17.053Z,100752.03
2023-02-01T15:25:24.375Z,100778.50
2023-02-01T15:30:24.370Z,100761.22
2023-02-01T15:35:44.070Z,100774.44
2023-02-01T15:40:59.521Z,100779.84
2023-02-01T15:46:07.076Z,100797.97
2023-02-01T15:51:04.640Z,100789.06
2023-02-01T15:56:04.392Z,100799.31
2023-02-01T16:01:05.552Z,100800.13
2023-02-01T16:06:05.281Z,100798.78
2023-02-01T16:11:25.856Z,100796.38
2023-02-01T16:16:22.323Z,100789.31
2023-02-01T16:21:19.065Z,100795.28
2023-02-01T16:26:15.547Z,100802.03
2023-02-01T16:31:22.115Z,100811.53
2023-02-01T16:36:19.511Z,100811.25
2023-02-01T16:41:18.610Z,100819.09
2023-02-01T16:46:20.367Z,100817.50
2023-02-01T16:51:17.792Z,100814.78
2023-02-01T16:56:23.109Z,100813.94
2023-02-01T17:01:20.301Z,100823.69
2023-02-01T17:06:20.027Z,100833.16
2023-02-01T17:11:16.825Z,100833.72
2023-02-01T17:16:18.927Z,100834.28
2023-02-01T17:21:15.570Z,100823.47
2023-02-01T17:26:12.329Z,100826.16
2023-02-01T17:31:14.244Z,100837.50
2023-02-01T17:36:16.465Z,100839.94
2023-02-01T17:41:14.991Z,100834.28
2023-02-01T17:46:14.560Z,100834.81
2023-02-01T17:51:17.293Z,100834.53
2023-02-01T17:56:17.312Z,100821.00
2023-02-01T18:01:22.935Z,100820.44
2023-02-01T18:06:23.047Z,100823.94
2023-02-01T18:11:21.505Z,100810.41
2023-02-01T18:16:22.433Z,100818.56
2023-02-01T18:21:22.166Z,100810.16
2023-02-01T18:26:18.995Z,100805.03
2023-02-01T18:31:32.119Z,100800.16
2023-02-01T18:36:30.305Z,100811.53
2023-02-01T18:41:26.786Z,100822.34
2023-02-01T18:46:23.419Z,100824.81
2023-02-01T18:51:20.578Z,100821.03
2023-02-01T18:56:18.654Z,100814.22
2023-02-01T19:01:17.548Z,100814.75
2023-02-01T19:06:15.374Z,100812.59
2023-02-01T19:11:14.242Z,100812.03
2023-02-01T19:16:13.455Z,100792.56
2023-02-01T19:21:12.577Z,100797.72
2023-02-01T19:26:17.240Z,100795.25
2023-02-01T19:31:13.872Z,100797.66
2023-02-01T19:36:11.117Z,100828.31
2023-02-01T19:41:09.907Z,100867.03
2023-02-01T19:46:06.298Z,100871.59
2023-02-01T19:51:04.113Z,100868.59
2023-02-01T19:56:01.649Z,100874.81
2023-02-01T20:00:59.564Z,100876.91
2023-02-01T20:05:58.315Z,100868.00
2023-02-01T20:10:54.880Z,100871.75
2023-02-01T20:15:59.286Z,100895.28
2023-02-01T20:20:59.073Z,100909.56
2023-02-01T20:26:04.887Z,100879.03
2023-02-01T20:31:02.765Z,100879.53
2023-02-01T20:35:59.603Z,100871.97
2023-02-01T20:41:07.723Z,100882.31
2023-02-01T20:46:04.812Z,100890.75
2023-02-01T20:51:01.231Z,100868.81
2023-02-01T20:55:58.419Z,100874.25
2023-02-01T21:00:54.982Z,100882.13
2023-02-01T21:05:54.295Z,100883.47
2023-02-01T21:11:09.613Z,100879.72
2023-02-01T21:16:12.141Z,100876.22
2023-02-01T21:21:10.120Z,100890.56
2023-02-01T21:26:06.534Z,100891.91
2023-02-01T21:31:02.939Z,100883.50
2023-02-01T21:35:59.605Z,100920.88
2023-02-01T21:41:14.362Z,100880.78
2023-02-01T21:46:10.756Z,100884.31
2023-02-01T21:51:09.193Z,100905.69
2023-02-01T21:56:05.990Z,100918.69
2023-02-01T22:01:02.782Z,100925.19
2023-02-01T22:05:59.276Z,100904.63
2023-02-01T22:10:55.688Z,100925.75
2023-02-01T22:15:52.402Z,100922.25
2023-02-01T22:20:48.848Z,100937.13
2023-02-01T22:25:45.247Z,100925.47
2023-02-01T22:30:41.699Z,100940.38
2023-02-01T22:35:38.138Z,100933.59
2023-02-01T22:40:34.599Z,100944.41
2023-02-01T22:45:31.029Z,100982.06
2023-02-01T22:50:27.393Z,100973.38
2023-02-01T22:55:24.081Z,100970.69
2023-02-01T23:00:24.715Z,100989.63
2023-02-01T23:05:21.980Z,100999.34
2023-02-01T23:10:20.004Z,101005.56
2023-02-01T23:15:17.445Z,101011.00
2023-02-01T23:20:16.817Z,101014.53
2023-02-01T23:25:15.243Z,101008.06
2023-02-01T23:30:12.157Z,100993.44
2023-02-01T23:35:08.976Z,101008.06
2023-02-01T23:40:06.030Z,101017.81
2023-02-01T23:45:03.772Z,101019.97
2023-02-01T23:50:00.196Z,101025.38
2023-02-01T23:54:56.594Z,101032.13
2023-02-01T23:59:53.035Z,101043.78
